Kona International At Keahole, HI

1:26 AM HST on August 29, 2014 (GMT -1000)
Kona International At Keahole | Change Station
CLOSE
Current Station
Airport
Location: Keahole Point,
Elevation: 43 ft
Nearby Weather Stations
Active Advisory: High Surf Advisory

Elev 43 ft 19.74 °N, 156.05 °W | Updated 33 minutes ago

Clear
Clear
79 °F
Feels Like 79 °F
N
0
Wind Variable Wind from North

Today
High -- | Low -- °F
--% Chance of Precip.
Yesterday
High -- | Low -- °F
Precip. -- in
6:08 AM 6:41 PM
Waxing Crescent, 13% visible
Pressure 29.88 in
Visibility 10.0 miles
Clouds Clear
Dew Point 68 °F
Humidity 69%
Rainfall 0.00 in
Snow Depth Not available.
UV 0 out of 12
Pollen Not available.
Air Quality Not available.
Flu Activity Not available.
METAR PHKO 291053Z AUTO 00000KT 10SM CLR 26/20 A2987 RMK AO2 SLP116 T02610200 TSNO

More Conditions Fewer Conditions

Pressure 29.88 in
Visibility 10.0 miles
Clouds Clear
Dew Point 68 °F
Humidity 69%
Rainfall 0.00 in
Snow Depth Not available.
UV 0 out of 12
Pollen Not available.
Air Quality Not available.
Flu Activity Not available.
METAR PHKO 291053Z AUTO 00000KT 10SM CLR 26/20 A2987 RMK AO2 SLP116 T02610200 TSNO

More Conditions Fewer Conditions

10-Day Weather Forecast

Almanac

Astronomy

Aug. 29, 2014 Rise Set
Actual Time 6:08 AM HST 6:41 PM HST
Civil Twilight 5:45 AM HST 7:03 PM HST
Nautical Twilight 5:19 AM HST 7:30 PM HST
Astronomical Twilight 4:53 AM HST 7:56 PM HST
Moon 9:31 AM HST 9:25 PM HST
Length of Visible Light 13h 18m
Length of Day
12h 33m
Tomorrow will be 1m 5s shorter.
Waxing Crescent, 13% of the Moon is Illuminated
Today
Waxing Crescent
Sep 2
First Quarter
Sep 8
Full
Sep 15
Last Quarter
Sep 24
New

Today's Extremes

State Highs State Lows

Community

WunderPhotos

Upload Photos

1,748,214 photos uploaded!

Nearby

Snow Depth

Station Depth Elevation
No new snow has been reported.

Earthquake Activity

City Distance Mag. Time & Date
No recent earthquake activity has been reported nearby.
Minimum magnitude displayed is 2.5.

Coastal Water Temperatures

Place Temperature
No Stations Reporting

Nearby Weather Stations